sensor_id;sensor_type;location;lat;lon;timestamp;pressure;altitude;pressure_sealevel;temperature;humidity
74090;BME280;62448;-26.094;27.994;2022-07-30T00:01:25;84976.88;;;11.72;17.95
74090;BME280;62448;-26.094;27.994;2022-07-30T00:03:50;84958.07;;;11.43;18.13
74090;BME280;62448;-26.094;27.994;2022-07-30T00:06:16;84947.17;;;10.88;18.42
74090;BME280;62448;-26.094;27.994;2022-07-30T00:08:41;84931.47;;;11.67;18.10
74090;BME280;62448;-26.094;27.994;2022-07-30T00:11:07;84928.36;;;11.22;18.25
74090;BME280;62448;-26.094;27.994;2022-07-30T00:13:32;84938.75;;;12.07;18.10
74090;BME280;62448;-26.094;27.994;2022-07-30T00:15:57;84944.87;;;11.71;18.15
74090;BME280;62448;-26.094;27.994;2022-07-30T00:18:23;84949.70;;;11.53;18.28
74090;BME280;62448;-26.094;27.994;2022-07-30T00:20:48;84957.98;;;11.32;18.30
74090;BME280;62448;-26.094;27.994;2022-07-30T00:23:14;84953.96;;;11.26;18.27
74090;BME280;62448;-26.094;27.994;2022-07-30T00:25:39;84959.38;;;11.45;18.33
74090;BME280;62448;-26.094;27.994;2022-07-30T00:28:05;84948.91;;;11.57;18.26
74090;BME280;62448;-26.094;27.994;2022-07-30T00:30:30;84950.51;;;11.45;18.29
74090;BME280;62448;-26.094;27.994;2022-07-30T00:32:55;84954.41;;;11.48;18.30
74090;BME280;62448;-26.094;27.994;2022-07-30T00:35:20;84956.86;;;11.48;18.38
74090;BME280;62448;-26.094;27.994;2022-07-30T00:37:46;84956.54;;;10.98;18.53
74090;BME280;62448;-26.094;27.994;2022-07-30T00:40:11;84954.46;;;10.81;18.51
74090;BME280;62448;-26.094;27.994;2022-07-30T00:42:38;84953.44;;;11.22;18.45
74090;BME280;62448;-26.094;27.994;2022-07-30T00:45:02;84949.99;;;11.34;18.44
74090;BME280;62448;-26.094;27.994;2022-07-30T00:47:27;84947.18;;;11.54;18.33
74090;BME280;62448;-26.094;27.994;2022-07-30T00:49:53;84954.65;;;11.13;18.43
74090;BME280;62448;-26.094;27.994;2022-07-30T00:52:20;84948.90;;;10.74;18.22
74090;BME280;62448;-26.094;27.994;2022-07-30T00:54:45;84950.13;;;11.42;17.79
74090;BME280;62448;-26.094;27.994;2022-07-30T00:57:10;84952.47;;;11.84;17.44
74090;BME280;62448;-26.094;27.994;2022-07-30T00:59:35;84949.39;;;11.59;17.39
74090;BME280;62448;-26.094;27.994;2022-07-30T01:02:01;84948.89;;;11.74;17.37
74090;BME280;62448;-26.094;27.994;2022-07-30T01:04:26;84949.07;;;12.13;17.16
74090;BME280;62448;-26.094;27.994;2022-07-30T01:06:52;84944.45;;;11.62;17.36
74090;BME280;62448;-26.094;27.994;2022-07-30T01:09:17;84944.40;;;12.04;17.24
74090;BME280;62448;-26.094;27.994;2022-07-30T01:11:44;84945.88;;;12.01;17.22
74090;BME280;62448;-26.094;27.994;2022-07-30T01:14:09;84945.48;;;11.74;17.27
74090;BME280;62448;-26.094;27.994;2022-07-30T01:16:35;84945.46;;;12.00;17.18
74090;BME280;62448;-26.094;27.994;2022-07-30T01:19:03;84949.98;;;11.93;17.29
74090;BME280;62448;-26.094;27.994;2022-07-30T01:21:31;84955.03;;;11.73;17.28
74090;BME280;62448;-26.094;27.994;2022-07-30T01:23:53;84951.34;;;11.66;17.30
74090;BME280;62448;-26.094;27.994;2022-07-30T01:26:18;84956.51;;;11.83;17.33
74090;BME280;62448;-26.094;27.994;2022-07-30T01:28:45;84956.79;;;11.94;17.60
74090;BME280;62448;-26.094;27.994;2022-07-30T01:31:08;84959.26;;;11.39;18.12
74090;BME280;62448;-26.094;27.994;2022-07-30T01:33:35;84962.29;;;11.30;18.22
74090;BME280;62448;-26.094;27.994;2022-07-30T01:35:59;84953.61;;;11.16;18.29
74090;BME280;62448;-26.094;27.994;2022-07-30T01:38:25;84956.02;;;11.23;18.20
74090;BME280;62448;-26.094;27.994;2022-07-30T01:40:50;84954.04;;;11.05;18.30
74090;BME280;62448;-26.094;27.994;2022-07-30T01:43:15;84949.01;;;11.21;18.31
74090;BME280;62448;-26.094;27.994;2022-07-30T01:45:40;84948.66;;;11.43;18.31
74090;BME280;62448;-26.094;27.994;2022-07-30T01:48:08;84943.40;;;11.33;18.31
74090;BME280;62448;-26.094;27.994;2022-07-30T01:50:32;84939.27;;;11.35;18.34
74090;BME280;62448;-26.094;27.994;2022-07-30T01:52:57;84937.91;;;11.11;18.01
74090;BME280;62448;-26.094;27.994;2022-07-30T01:55:29;84935.90;;;11.58;17.67
74090;BME280;62448;-26.094;27.994;2022-07-30T01:57:48;84941.03;;;11.81;17.76
74090;BME280;62448;-26.094;27.994;2022-07-30T02:00:14;84938.19;;;11.55;17.98
74090;BME280;62448;-26.094;27.994;2022-07-30T02:02:38;84932.68;;;11.69;18.01
74090;BME280;62448;-26.094;27.994;2022-07-30T02:05:04;84935.05;;;11.59;18.07
74090;BME280;62448;-26.094;27.994;2022-07-30T02:07:34;84939.80;;;11.49;18.17
74090;BME280;62448;-26.094;27.994;2022-07-30T02:09:58;84934.04;;;10.82;18.30
74090;BME280;62448;-26.094;27.994;2022-07-30T02:12:22;84937.64;;;11.07;18.44
74090;BME280;62448;-26.094;27.994;2022-07-30T02:14:49;84945.59;;;10.74;18.51
74090;BME280;62448;-26.094;27.994;2022-07-30T02:17:15;84947.29;;;10.76;18.55
74090;BME280;62448;-26.094;27.994;2022-07-30T02:19:39;84946.24;;;10.89;18.48
74090;BME280;62448;-26.094;27.994;2022-07-30T02:22:05;84943.69;;;10.67;18.44
74090;BME280;62448;-26.094;27.994;2022-07-30T02:24:29;84941.04;;;11.35;18.39
74090;BME280;62448;-26.094;27.994;2022-07-30T02:26:57;84935.24;;;10.91;18.57
74090;BME280;62448;-26.094;27.994;2022-07-30T02:29:18;84935.04;;;11.15;18.36
74090;BME280;62448;-26.094;27.994;2022-07-30T02:31:43;84933.14;;;11.04;18.46
74090;BME280;62448;-26.094;27.994;2022-07-30T02:34:10;84932.38;;;11.10;18.47
74090;BME280;62448;-26.094;27.994;2022-07-30T02:36:35;84932.05;;;11.03;18.39
74090;BME280;62448;-26.094;27.994;2022-07-30T02:39:02;84939.32;;;11.08;18.48
74090;BME280;62448;-26.094;27.994;2022-07-30T02:41:27;84964.10;;;10.99;18.45
74090;BME280;62448;-26.094;27.994;2022-07-30T02:43:51;84991.88;;;10.63;18.50
74090;BME280;62448;-26.094;27.994;2022-07-30T02:46:17;84998.62;;;10.89;18.42
74090;BME280;62448;-26.094;27.994;2022-07-30T02:48:41;84990.33;;;10.72;18.51
74090;BME280;62448;-26.094;27.994;2022-07-30T02:51:07;84969.87;;;10.88;18.54
74090;BME280;62448;-26.094;27.994;2022-07-30T02:53:32;84953.99;;;10.60;18.24
74090;BME280;62448;-26.094;27.994;2022-07-30T02:55:57;84956.92;;;11.22;17.81
74090;BME280;62448;-26.094;27.994;2022-07-30T02:58:24;84967.17;;;11.26;17.95
74090;BME280;62448;-26.094;27.994;2022-07-30T03:00:49;84964.57;;;10.06;18.11
74090;BME280;62448;-26.094;27.994;2022-07-30T03:03:14;84941.39;;;9.79;17.96
74090;BME280;62448;-26.094;27.994;2022-07-30T03:05:39;84910.82;;;10.02;17.88
74090;BME280;62448;-26.094;27.994;2022-07-30T03:08:05;84898.03;;;9.74;17.92
74090;BME280;62448;-26.094;27.994;2022-07-30T03:10:31;84900.55;;;10.87;17.93
74090;BME280;62448;-26.094;27.994;2022-07-30T03:12:56;84917.16;;;10.56;18.23
74090;BME280;62448;-26.094;27.994;2022-07-30T03:15:21;84936.60;;;10.96;18.23
74090;BME280;62448;-26.094;27.994;2022-07-30T03:17:54;84946.50;;;10.84;18.30
74090;BME280;62448;-26.094;27.994;2022-07-30T03:20:16;84943.93;;;11.13;18.33
74090;BME280;62448;-26.094;27.994;2022-07-30T03:22:41;84934.41;;;10.13;18.49
74090;BME280;62448;-26.094;27.994;2022-07-30T03:25:03;84937.12;;;10.38;18.49
74090;BME280;62448;-26.094;27.994;2022-07-30T03:27:29;84948.15;;;10.88;18.46
74090;BME280;62448;-26.094;27.994;2022-07-30T03:29:54;84945.21;;;10.81;18.43
74090;BME280;62448;-26.094;27.994;2022-07-30T03:32:19;84939.77;;;11.00;18.37
74090;BME280;62448;-26.094;27.994;2022-07-30T03:34:45;84941.87;;;10.40;18.63
74090;BME280;62448;-26.094;27.994;2022-07-30T03:37:10;84941.98;;;10.77;18.55
74090;BME280;62448;-26.094;27.994;2022-07-30T03:39:36;84939.74;;;10.25;18.72
74090;BME280;62448;-26.094;27.994;2022-07-30T03:42:01;84932.31;;;10.75;18.50
74090;BME280;62448;-26.094;27.994;2022-07-30T03:44:27;84928.50;;;10.76;18.54
74090;BME280;62448;-26.094;27.994;2022-07-30T03:46:52;84926.31;;;10.96;18.44
74090;BME280;62448;-26.094;27.994;2022-07-30T03:49:17;84927.74;;;10.73;18.59
74090;BME280;62448;-26.094;27.994;2022-07-30T03:52:00;84929.72;;;10.67;18.55
74090;BME280;62448;-26.094;27.994;2022-07-30T03:54:25;84933.85;;;10.41;18.28
74090;BME280;62448;-26.094;27.994;2022-07-30T03:56:51;84937.93;;;11.02;18.10
74090;BME280;62448;-26.094;27.994;2022-07-30T03:59:17;84937.54;;;10.79;18.20
74090;BME280;62448;-26.094;27.994;2022-07-30T04:01:42;84936.91;;;10.95;18.35
74090;BME280;62448;-26.094;27.994;2022-07-30T04:04:08;84929.89;;;10.56;18.52
74090;BME280;62448;-26.094;27.994;2022-07-30T04:06:33;84925.36;;;10.73;18.37
74090;BME280;62448;-26.094;27.994;2022-07-30T04:08:59;84921.98;;;10.73;18.43
74090;BME280;62448;-26.094;27.994;2022-07-30T04:11:24;84922.21;;;10.64;18.48
74090;BME280;62448;-26.094;27.994;2022-07-30T04:13:50;84929.36;;;10.62;18.53
74090;BME280;62448;-26.094;27.994;2022-07-30T04:16:19;84936.94;;;10.37;19.05
74090;BME280;62448;-26.094;27.994;2022-07-30T04:18:46;84937.79;;;11.01;18.67
74090;BME280;62448;-26.094;27.994;2022-07-30T04:21:08;84933.53;;;10.84;18.78
74090;BME280;62448;-26.094;27.994;2022-07-30T04:23:32;84928.01;;;10.31;18.90
74090;BME280;62448;-26.094;27.994;2022-07-30T04:25:56;84933.54;;;10.42;18.94
74090;BME280;62448;-26.094;27.994;2022-07-30T04:28:22;84934.62;;;10.51;18.73
74090;BME280;62448;-26.094;27.994;2022-07-30T04:30:47;84935.50;;;10.21;18.96
74090;BME280;62448;-26.094;27.994;2022-07-30T04:33:13;84930.37;;;11.09;18.56
74090;BME280;62448;-26.094;27.994;2022-07-30T04:35:38;84929.47;;;10.74;18.54
74090;BME280;62448;-26.094;27.994;2022-07-30T04:38:03;84932.67;;;10.81;18.52
74090;BME280;62448;-26.094;27.994;2022-07-30T04:40:29;84939.34;;;10.84;18.48
74090;BME280;62448;-26.094;27.994;2022-07-30T04:42:54;84947.00;;;10.59;18.57
74090;BME280;62448;-26.094;27.994;2022-07-30T04:45:20;84950.42;;;10.78;18.45
74090;BME280;62448;-26.094;27.994;2022-07-30T04:47:45;84949.37;;;10.50;18.51
74090;BME280;62448;-26.094;27.994;2022-07-30T04:50:12;84951.65;;;10.60;18.49
74090;BME280;62448;-26.094;27.994;2022-07-30T04:52:36;84954.47;;;9.91;18.53
74090;BME280;62448;-26.094;27.994;2022-07-30T04:55:04;84961.15;;;10.73;18.07
74090;BME280;62448;-26.094;27.994;2022-07-30T04:57:27;84966.81;;;10.96;18.05
74090;BME280;62448;-26.094;27.994;2022-07-30T04:59:52;84970.62;;;10.76;18.27
74090;BME280;62448;-26.094;27.994;2022-07-30T05:02:19;84973.68;;;10.79;18.22
74090;BME280;62448;-26.094;27.994;2022-07-30T05:04:44;84972.13;;;10.46;18.44
74090;BME280;62448;-26.094;27.994;2022-07-30T05:07:08;84978.05;;;10.45;18.55
74090;BME280;62448;-26.094;27.994;2022-07-30T05:09:34;84984.43;;;10.17;18.59
74090;BME280;62448;-26.094;27.994;2022-07-30T05:11:59;84993.64;;;10.32;18.50
74090;BME280;62448;-26.094;27.994;2022-07-30T05:14:25;85004.58;;;10.50;18.51
74090;BME280;62448;-26.094;27.994;2022-07-30T05:16:49;84999.64;;;10.04;18.64
74090;BME280;62448;-26.094;27.994;2022-07-30T05:19:15;84991.12;;;10.21;18.68
74090;BME280;62448;-26.094;27.994;2022-07-30T05:21:40;84990.34;;;10.25;18.61
74090;BME280;62448;-26.094;27.994;2022-07-30T05:24:06;84991.71;;;10.40;18.53
74090;BME280;62448;-26.094;27.994;2022-07-30T05:26:31;84993.08;;;10.60;18.46
74090;BME280;62448;-26.094;27.994;2022-07-30T05:28:56;85001.45;;;10.43;18.62
74090;BME280;62448;-26.094;27.994;2022-07-30T05:31:22;85013.38;;;9.99;18.62
74090;BME280;62448;-26.094;27.994;2022-07-30T05:33:47;85015.36;;;9.84;18.72
74090;BME280;62448;-26.094;27.994;2022-07-30T05:36:13;85018.16;;;9.98;18.69
74090;BME280;62448;-26.094;27.994;2022-07-30T05:38:38;85018.28;;;10.67;18.52
74090;BME280;62448;-26.094;27.994;2022-07-30T05:41:03;85011.99;;;10.47;18.46
74090;BME280;62448;-26.094;27.994;2022-07-30T05:43:29;85011.69;;;10.52;18.49
74090;BME280;62448;-26.094;27.994;2022-07-30T05:45:54;85014.93;;;9.94;18.70
74090;BME280;62448;-26.094;27.994;2022-07-30T05:48:20;85020.61;;;9.83;18.78
74090;BME280;62448;-26.094;27.994;2022-07-30T05:50:45;85022.34;;;9.93;18.66
74090;BME280;62448;-26.094;27.994;2022-07-30T05:53:10;85021.72;;;10.15;18.43
74090;BME280;62448;-26.094;27.994;2022-07-30T05:55:36;85019.62;;;10.61;18.16
74090;BME280;62448;-26.094;27.994;2022-07-30T05:58:02;85019.32;;;10.81;18.19
74090;BME280;62448;-26.094;27.994;2022-07-30T06:00:28;85017.58;;;10.27;18.40
74090;BME280;62448;-26.094;27.994;2022-07-30T06:02:53;85026.51;;;10.70;18.53
74090;BME280;62448;-26.094;27.994;2022-07-30T06:05:19;85034.43;;;10.29;18.53
74090;BME280;62448;-26.094;27.994;2022-07-30T06:07:45;85041.76;;;10.15;18.69
74090;BME280;62448;-26.094;27.994;2022-07-30T06:10:10;85047.27;;;9.79;18.81
74090;BME280;62448;-26.094;27.994;2022-07-30T06:12:36;85049.81;;;10.04;18.73
74090;BME280;62448;-26.094;27.994;2022-07-30T06:15:01;85048.94;;;10.00;18.88
74090;BME280;62448;-26.094;27.994;2022-07-30T06:17:27;85048.47;;;9.93;18.80
74090;BME280;62448;-26.094;27.994;2022-07-30T06:19:51;85050.23;;;9.69;18.88
74090;BME280;62448;-26.094;27.994;2022-07-30T06:22:17;85049.64;;;9.92;18.76
74090;BME280;62448;-26.094;27.994;2022-07-30T06:24:42;85047.40;;;10.16;18.80
74090;BME280;62448;-26.094;27.994;2022-07-30T06:27:08;85047.18;;;10.30;18.54
74090;BME280;62448;-26.094;27.994;2022-07-30T06:29:33;85054.63;;;10.14;18.67
74090;BME280;62448;-26.094;27.994;2022-07-30T06:31:59;85057.52;;;10.50;18.65
74090;BME280;62448;-26.094;27.994;2022-07-30T06:34:24;85061.30;;;9.86;18.80
74090;BME280;62448;-26.094;27.994;2022-07-30T06:36:50;85066.38;;;10.14;18.87
74090;BME280;62448;-26.094;27.994;2022-07-30T06:39:16;85073.75;;;10.26;18.65
74090;BME280;62448;-26.094;27.994;2022-07-30T06:41:41;85074.60;;;9.89;18.94
74090;BME280;62448;-26.094;27.994;2022-07-30T06:44:07;85072.93;;;10.07;18.98
74090;BME280;62448;-26.094;27.994;2022-07-30T06:46:32;85068.32;;;9.71;19.05
74090;BME280;62448;-26.094;27.994;2022-07-30T06:48:57;85069.27;;;10.15;18.97
74090;BME280;62448;-26.094;27.994;2022-07-30T06:51:23;85073.15;;;10.08;19.02
74090;BME280;62448;-26.094;27.994;2022-07-30T06:53:48;85060.57;;;9.78;18.98
74090;BME280;62448;-26.094;27.994;2022-07-30T06:56:14;85049.14;;;10.25;18.52
74090;BME280;62448;-26.094;27.994;2022-07-30T06:58:39;85043.46;;;10.96;17.97
74090;BME280;62448;-26.094;27.994;2022-07-30T07:01:05;85041.42;;;10.63;18.05
74090;BME280;62448;-26.094;27.994;2022-07-30T07:03:30;85056.57;;;11.77;17.66
74090;BME280;62448;-26.094;27.994;2022-07-30T07:05:55;85058.17;;;10.89;17.95
74090;BME280;62448;-26.094;27.994;2022-07-30T07:08:21;85070.43;;;10.81;17.82
74090;BME280;62448;-26.094;27.994;2022-07-30T07:10:46;85046.64;;;10.61;18.03
74090;BME280;62448;-26.094;27.994;2022-07-30T07:13:11;85038.19;;;10.38;18.06
74090;BME280;62448;-26.094;27.994;2022-07-30T07:15:37;85061.13;;;10.37;18.03
74090;BME280;62448;-26.094;27.994;2022-07-30T07:18:03;85051.60;;;11.39;17.57
74090;BME280;62448;-26.094;27.994;2022-07-30T07:20:29;85052.90;;;10.93;17.67
74090;BME280;62448;-26.094;27.994;2022-07-30T07:22:54;85050.72;;;10.52;17.74
74090;BME280;62448;-26.094;27.994;2022-07-30T07:25:22;85048.89;;;10.39;17.83
74090;BME280;62448;-26.094;27.994;2022-07-30T07:27:45;85042.39;;;10.69;17.85
74090;BME280;62448;-26.094;27.994;2022-07-30T07:30:11;85047.49;;;10.85;17.74
74090;BME280;62448;-26.094;27.994;2022-07-30T07:32:36;85055.42;;;11.69;17.37
74090;BME280;62448;-26.094;27.994;2022-07-30T07:35:02;85064.90;;;10.73;17.71
74090;BME280;62448;-26.094;27.994;2022-07-30T07:37:27;85070.59;;;10.97;17.68
74090;BME280;62448;-26.094;27.994;2022-07-30T07:39:52;85076.95;;;11.26;17.52
74090;BME280;62448;-26.094;27.994;2022-07-30T07:42:18;85088.62;;;10.84;17.91
74090;BME280;62448;-26.094;27.994;2022-07-30T07:44:43;85098.79;;;10.45;18.22
74090;BME280;62448;-26.094;27.994;2022-07-30T07:47:09;85098.54;;;10.51;18.37
74090;BME280;62448;-26.094;27.994;2022-07-30T07:49:34;85107.65;;;10.22;18.88
74090;BME280;62448;-26.094;27.994;2022-07-30T07:52:00;85113.86;;;9.83;19.34
74090;BME280;62448;-26.094;27.994;2022-07-30T07:54:25;85116.49;;;9.97;19.25
74090;BME280;62448;-26.094;27.994;2022-07-30T07:56:51;85113.89;;;10.23;19.05
74090;BME280;62448;-26.094;27.994;2022-07-30T07:59:16;85118.60;;;10.47;18.85
74090;BME280;62448;-26.094;27.994;2022-07-30T08:01:42;85120.37;;;10.25;18.94
74090;BME280;62448;-26.094;27.994;2022-07-30T08:04:07;85125.58;;;10.16;18.96
74090;BME280;62448;-26.094;27.994;2022-07-30T08:06:33;85134.71;;;11.19;18.67
74090;BME280;62448;-26.094;27.994;2022-07-30T08:08:59;85137.65;;;10.42;18.72
74090;BME280;62448;-26.094;27.994;2022-07-30T08:11:24;85135.37;;;10.91;18.69
74090;BME280;62448;-26.094;27.994;2022-07-30T08:13:50;85133.22;;;10.56;18.65
74090;BME280;62448;-26.094;27.994;2022-07-30T08:16:15;85133.79;;;10.19;18.65
74090;BME280;62448;-26.094;27.994;2022-07-30T08:18:40;85134.20;;;9.74;18.76
74090;BME280;62448;-26.094;27.994;2022-07-30T08:21:06;85120.91;;;10.22;18.60
74090;BME280;62448;-26.094;27.994;2022-07-30T08:23:31;85111.03;;;10.57;18.56
74090;BME280;62448;-26.094;27.994;2022-07-30T08:25:57;85109.93;;;10.65;18.44
74090;BME280;62448;-26.094;27.994;2022-07-30T08:28:21;85106.65;;;10.52;18.40
74090;BME280;62448;-26.094;27.994;2022-07-30T08:30:47;85108.09;;;7.78;18.47
74090;BME280;62448;-26.094;27.994;2022-07-30T08:33:13;85104.85;;;10.63;18.21
74090;BME280;62448;-26.094;27.994;2022-07-30T08:35:38;85100.11;;;10.07;18.35
74090;BME280;62448;-26.094;27.994;2022-07-30T08:38:03;85098.05;;;10.62;18.19
74090;BME280;62448;-26.094;27.994;2022-07-30T08:40:33;85096.58;;;10.89;18.15
74090;BME280;62448;-26.094;27.994;2022-07-30T08:42:54;85082.98;;;10.13;18.22
74090;BME280;62448;-26.094;27.994;2022-07-30T08:45:20;85075.93;;;10.73;17.84
74090;BME280;62448;-26.094;27.994;2022-07-30T08:47:46;85072.85;;;10.68;18.28
74090;BME280;62448;-26.094;27.994;2022-07-30T08:50:11;85070.25;;;10.06;18.75
74090;BME280;62448;-26.094;27.994;2022-07-30T08:52:37;85081.85;;;9.96;18.97
74090;BME280;62448;-26.094;27.994;2022-07-30T08:55:03;85078.13;;;10.02;18.65
74090;BME280;62448;-26.094;27.994;2022-07-30T08:57:29;85082.18;;;10.30;18.36
74090;BME280;62448;-26.094;27.994;2022-07-30T08:59:53;85080.44;;;10.16;18.27
74090;BME280;62448;-26.094;27.994;2022-07-30T09:02:18;85072.12;;;10.32;18.25
74090;BME280;62448;-26.094;27.994;2022-07-30T09:04:43;85068.19;;;10.53;18.07
74090;BME280;62448;-26.094;27.994;2022-07-30T09:07:08;85065.21;;;10.27;18.02
74090;BME280;62448;-26.094;27.994;2022-07-30T09:09:34;85063.79;;;10.52;18.01
74090;BME280;62448;-26.094;27.994;2022-07-30T09:11:59;85059.91;;;10.43;17.97
74090;BME280;62448;-26.094;27.994;2022-07-30T09:14:25;85054.21;;;10.37;17.92
74090;BME280;62448;-26.094;27.994;2022-07-30T09:16:56;85045.76;;;10.05;17.93
74090;BME280;62448;-26.094;27.994;2022-07-30T09:19:19;85032.10;;;10.47;17.82
74090;BME280;62448;-26.094;27.994;2022-07-30T09:21:41;85012.59;;;10.25;17.87
74090;BME280;62448;-26.094;27.994;2022-07-30T09:24:09;85001.97;;;10.56;17.72
74090;BME280;62448;-26.094;27.994;2022-07-30T09:26:52;84990.68;;;10.15;17.83
74090;BME280;62448;-26.094;27.994;2022-07-30T09:29:14;84986.29;;;10.07;17.75
74090;BME280;62448;-26.094;27.994;2022-07-30T09:31:23;84993.27;;;10.11;17.71
74090;BME280;62448;-26.094;27.994;2022-07-30T09:33:48;84996.18;;;10.42;17.65
74090;BME280;62448;-26.094;27.994;2022-07-30T09:36:15;84993.96;;;10.02;17.69
74090;BME280;62448;-26.094;27.994;2022-07-30T09:38:45;84992.50;;;10.19;17.69
74090;BME280;62448;-26.094;27.994;2022-07-30T09:41:05;84987.11;;;10.45;18.04
74090;BME280;62448;-26.094;27.994;2022-07-30T09:43:31;84983.08;;;10.59;18.27
74090;BME280;62448;-26.094;27.994;2022-07-30T09:45:56;84980.31;;;10.45;18.22
74090;BME280;62448;-26.094;27.994;2022-07-30T09:48:24;84981.68;;;9.81;18.54
74090;BME280;62448;-26.094;27.994;2022-07-30T09:50:49;84975.56;;;9.63;18.53
74090;BME280;62448;-26.094;27.994;2022-07-30T09:53:28;84974.37;;;9.64;18.58
74090;BME280;62448;-26.094;27.994;2022-07-30T09:55:53;84978.44;;;10.35;18.06
74090;BME280;62448;-26.094;27.994;2022-07-30T09:58:18;84980.49;;;10.07;17.87
74090;BME280;62448;-26.094;27.994;2022-07-30T10:00:44;84981.29;;;10.27;17.81
74090;BME280;62448;-26.094;27.994;2022-07-30T10:03:19;84980.94;;;10.18;17.71
74090;BME280;62448;-26.094;27.994;2022-07-30T10:05:35;84978.41;;;10.60;17.57
74090;BME280;62448;-26.094;27.994;2022-07-30T10:08:01;84971.45;;;10.41;17.56
74090;BME280;62448;-26.094;27.994;2022-07-30T10:10:27;84967.90;;;10.45;17.55
74090;BME280;62448;-26.094;27.994;2022-07-30T10:12:53;84964.40;;;10.58;17.54
74090;BME280;62448;-26.094;27.994;2022-07-30T10:15:19;84967.02;;;10.43;17.50
74090;BME280;62448;-26.094;27.994;2022-07-30T10:17:43;84962.28;;;10.41;17.52
74090;BME280;62448;-26.094;27.994;2022-07-30T10:20:08;84959.79;;;10.49;17.46
74090;BME280;62448;-26.094;27.994;2022-07-30T10:22:34;84950.37;;;10.77;17.43
74090;BME280;62448;-26.094;27.994;2022-07-30T10:24:58;84948.35;;;10.68;17.50
74090;BME280;62448;-26.094;27.994;2022-07-30T10:27:24;84943.43;;;10.64;17.37
74090;BME280;62448;-26.094;27.994;2022-07-30T10:29:49;84938.47;;;10.72;17.46
74090;BME280;62448;-26.094;27.994;2022-07-30T10:32:15;84932.74;;;10.81;17.41
74090;BME280;62448;-26.094;27.994;2022-07-30T10:34:40;84929.45;;;10.80;17.77
74090;BME280;62448;-26.094;27.994;2022-07-30T10:37:06;84926.63;;;10.37;18.01
74090;BME280;62448;-26.094;27.994;2022-07-30T10:39:34;84929.33;;;10.78;18.28
74090;BME280;62448;-26.094;27.994;2022-07-30T10:42:05;84920.37;;;10.68;18.43
74090;BME280;62448;-26.094;27.994;2022-07-30T10:45:13;84916.50;;;10.03;18.56
74090;BME280;62448;-26.094;27.994;2022-07-30T10:46:54;84913.54;;;10.32;18.41
74090;BME280;62448;-26.094;27.994;2022-07-30T10:49:14;84909.97;;;10.21;18.53
74090;BME280;62448;-26.094;27.994;2022-07-30T10:51:48;84907.11;;;10.16;18.49
74090;BME280;62448;-26.094;27.994;2022-07-30T10:54:04;84903.04;;;9.55;18.45
74090;BME280;62448;-26.094;27.994;2022-07-30T10:56:29;84890.01;;;10.21;17.93
74090;BME280;62448;-26.094;27.994;2022-07-30T10:59:00;84876.61;;;10.45;17.72
74090;BME280;62448;-26.094;27.994;2022-07-30T11:01:20;84878.87;;;10.74;17.60
74090;BME280;62448;-26.094;27.994;2022-07-30T11:04:16;84871.95;;;10.80;17.50
74090;BME280;62448;-26.094;27.994;2022-07-30T11:06:27;84867.41;;;10.81;17.50
74090;BME280;62448;-26.094;27.994;2022-07-30T11:08:38;84859.58;;;10.86;17.47
74090;BME280;62448;-26.094;27.994;2022-07-30T11:11:03;84854.39;;;10.98;17.41
74090;BME280;62448;-26.094;27.994;2022-07-30T11:14:00;84850.22;;;10.84;17.43
74090;BME280;62448;-26.094;27.994;2022-07-30T11:15:55;84848.34;;;11.08;17.28
74090;BME280;62448;-26.094;27.994;2022-07-30T11:18:18;84842.88;;;10.93;17.40
74090;BME280;62448;-26.094;27.994;2022-07-30T11:21:14;84837.31;;;10.94;17.32
74090;BME280;62448;-26.094;27.994;2022-07-30T11:23:10;84831.89;;;11.09;17.33
74090;BME280;62448;-26.094;27.994;2022-07-30T11:25:41;84832.19;;;11.11;17.28
74090;BME280;62448;-26.094;27.994;2022-07-30T11:27:59;84834.22;;;11.11;17.38
74090;BME280;62448;-26.094;27.994;2022-07-30T11:30:33;84827.02;;;11.00;17.67
74090;BME280;62448;-26.094;27.994;2022-07-30T11:32:51;84824.06;;;10.96;17.87
74090;BME280;62448;-26.094;27.994;2022-07-30T11:35:17;84823.75;;;10.72;18.03
74090;BME280;62448;-26.094;27.994;2022-07-30T11:38:01;84819.30;;;10.65;18.18
74090;BME280;62448;-26.094;27.994;2022-07-30T11:40:08;84816.49;;;10.67;18.18
74090;BME280;62448;-26.094;27.994;2022-07-30T11:42:33;84815.01;;;10.70;18.15
74090;BME280;62448;-26.094;27.994;2022-07-30T11:45:21;84812.92;;;10.75;18.20
74090;BME280;62448;-26.094;27.994;2022-07-30T11:47:27;84805.10;;;10.35;17.92
74090;BME280;62448;-26.094;27.994;2022-07-30T11:49:48;84798.05;;;10.72;17.56
74090;BME280;62448;-26.094;27.994;2022-07-30T11:52:22;84800.51;;;11.15;17.27
74090;BME280;62448;-26.094;27.994;2022-07-30T11:54:51;84791.36;;;11.03;17.29
74090;BME280;62448;-26.094;27.994;2022-07-30T11:57:04;84790.32;;;11.23;17.25
74090;BME280;62448;-26.094;27.994;2022-07-30T11:59:29;84790.57;;;11.27;17.15
74090;BME280;62448;-26.094;27.994;2022-07-30T12:01:55;84786.57;;;11.56;17.12
74090;BME280;62448;-26.094;27.994;2022-07-30T12:04:22;84787.31;;;11.40;17.06
74090;BME280;62448;-26.094;27.994;2022-07-30T12:06:48;84786.42;;;11.50;17.12
74090;BME280;62448;-26.094;27.994;2022-07-30T12:09:12;84789.79;;;11.67;17.06
74090;BME280;62448;-26.094;27.994;2022-07-30T12:11:37;84790.44;;;11.20;17.18
74090;BME280;62448;-26.094;27.994;2022-07-30T12:14:02;84789.04;;;11.25;17.02
74090;BME280;62448;-26.094;27.994;2022-07-30T12:16:28;84788.98;;;11.98;16.91
74090;BME280;62448;-26.094;27.994;2022-07-30T12:18:53;84788.01;;;11.43;16.99
74090;BME280;62448;-26.094;27.994;2022-07-30T12:21:19;84789.02;;;11.69;16.96
74090;BME280;62448;-26.094;27.994;2022-07-30T12:23:54;84791.23;;;11.18;17.42
74090;BME280;62448;-26.094;27.994;2022-07-30T12:26:20;84785.52;;;11.14;17.57
74090;BME280;62448;-26.094;27.994;2022-07-30T12:28:35;84788.85;;;11.28;17.61
74090;BME280;62448;-26.094;27.994;2022-07-30T12:31:02;84789.46;;;11.35;17.67